Time;durP1;ratioP1;P1;durP2;ratioP2;P2;SDS_P1;SDS_P2;PMS_P1;PMS_P2;Temp;Humidity;BMP_temperature;BMP_pressure;BME280_temperature;BME280_humidity;BME280_pressure;Samples;Min_cycle;Max_cycle;Signal;HPM_P1;HPM_P2
2023/04/01 00:01:13;;;;;;;5.50;1.70;;;;;;;10.56;82.99;98758.31;5040967;28;20278;-72
2023/04/01 00:03:40;;;;;;;5.23;1.80;;;;;;;10.58;82.94;98756.53;5038426;28;20202;-73
2023/04/01 00:06:07;;;;;;;3.87;1.70;;;;;;;10.52;83.23;98760.13;5034121;28;20200;-72
2023/04/01 00:08:33;;;;;;;2.77;1.30;;;;;;;10.53;83.13;98756.59;5050553;28;20198;-72
2023/04/01 00:11:00;;;;;;;3.57;1.50;;;;;;;10.51;83.32;98758.38;5035015;28;20218;-72
2023/04/01 00:13:26;;;;;;;3.07;1.40;;;;;;;10.54;83.93;98757.47;5039777;28;20722;-72
2023/04/01 00:15:55;;;;;;;4.77;1.60;;;;;;;10.56;83.25;98753.03;5045614;28;20699;-73
2023/04/01 00:18:22;;;;;;;4.80;1.87;;;;;;;10.52;83.03;98757.47;5038393;28;20687;-72
2023/04/01 00:20:50;;;;;;;4.33;1.70;;;;;;;10.52;83.64;98762.78;5047612;28;20236;-73
2023/04/01 00:23:17;;;;;;;2.43;1.50;;;;;;;10.45;84.04;98753.16;5049055;28;20491;-72
2023/04/01 00:25:46;;;;;;;5.50;1.70;;;;;;;10.49;83.78;98760.16;5040630;28;20232;-73
2023/04/01 00:28:12;;;;;;;4.83;1.57;;;;;;;10.51;83.53;98758.38;5044290;28;20198;-73
2023/04/01 00:30:39;;;;;;;3.87;1.60;;;;;;;10.45;83.93;98758.47;5047864;28;20214;-72
2023/04/01 00:33:05;;;;;;;4.30;1.67;;;;;;;10.45;83.58;98754.94;5041060;28;20642;-72
2023/04/01 00:35:32;;;;;;;6.33;1.70;;;;;;;10.41;84.33;98759.38;5047112;28;20202;-72
2023/04/01 00:37:59;;;;;;;4.80;1.50;;;;;;;10.38;84.54;98753.22;5049654;28;20232;-73
2023/04/01 00:40:32;;;;;;;3.50;1.70;;;;;;;10.40;84.55;98747.03;5041271;28;20316;-73
2023/04/01 00:42:59;;;;;;;5.93;1.83;;;;;;;10.42;84.15;98752.31;5041183;28;20202;-74
2023/04/01 00:45:38;;;;;;;6.23;1.70;;;;;;;10.38;84.26;98751.47;5042000;28;20193;-72
2023/04/01 00:48:10;;;;;;;5.30;1.70;;;;;;;10.32;84.44;98749.78;5045122;28;20195;-72
2023/04/01 00:50:38;;;;;;;5.17;1.60;;;;;;;10.31;84.53;98752.44;5040774;28;20223;-72
2023/04/01 00:53:06;;;;;;;3.40;1.40;;;;;;;10.34;84.45;98747.09;5048872;28;20264;-72
2023/04/01 00:55:35;;;;;;;2.90;1.47;;;;;;;10.33;84.35;98748.00;5041275;28;20727;-72
2023/04/01 00:58:05;;;;;;;3.60;1.67;;;;;;;10.34;84.48;98741.81;5037126;28;20210;-73
2023/04/01 01:00:32;;;;;;;5.40;1.60;;;;;;;10.32;83.71;98730.38;5034673;28;20459;-72
2023/04/01 01:02:58;;;;;;;4.97;1.60;;;;;;;10.33;83.55;98745.34;5035327;28;20205;-72
2023/04/01 01:05:58;;;;;;;4.13;1.43;;;;;;;10.31;83.34;98740.09;5049669;28;20197;-72
2023/04/01 01:08:45;;;;;;;4.47;1.53;;;;;;;10.31;83.87;98742.72;5039538;28;20655;-72
2023/04/01 01:11:18;;;;;;;4.17;1.40;;;;;;;10.32;83.38;98739.19;5032367;28;20238;-72
2023/04/01 01:14:06;;;;;;;1.83;1.37;;;;;;;10.31;83.15;98736.56;5036252;28;20229;-71
2023/04/01 01:16:42;;;;;;;2.43;1.23;;;;;;;10.31;82.93;98741.84;5041987;28;20201;-72
2023/04/01 01:19:47;;;;;;;4.97;1.80;;;;;;;10.31;83.24;98745.38;5043853;28;20289;-72
2023/04/01 01:22:44;;;;;;;3.93;1.53;;;;;;;10.32;83.17;98725.94;5038086;28;20740;-72
2023/04/01 01:25:24;;;;;;;5.83;1.63;;;;;;;10.28;83.66;98734.81;4998150;28;20205;-73
2023/04/01 01:28:08;;;;;;;5.10;1.80;;;;;;;10.26;83.77;98733.97;5053417;28;20242;-72
2023/04/01 01:31:02;;;;;;;6.33;1.60;;;;;;;10.19;84.51;98737.56;5046285;28;20672;-73
2023/04/01 01:33:49;;;;;;;8.03;2.10;;;;;;;10.18;84.42;98735.81;5044799;28;20762;-73
2023/04/01 01:36:20;;;;;;;3.70;1.50;;;;;;;10.23;83.75;98736.66;5042330;28;20200;-72
2023/04/01 01:38:49;;;;;;;2.10;1.50;;;;;;;10.21;83.81;98735.81;5038382;28;20622;-72
2023/04/01 01:41:17;;;;;;;4.60;1.80;;;;;;;10.19;84.39;98736.69;5023532;28;20246;-72
2023/04/01 01:43:48;;;;;;;3.33;1.53;;;;;;;10.20;83.86;98736.69;5037873;28;20200;-72
2023/04/01 01:46:20;;;;;;;3.57;1.50;;;;;;;10.24;83.85;98741.06;5016047;28;20210;-72
2023/04/01 01:48:48;;;;;;;2.43;1.30;;;;;;;10.24;83.71;98735.75;5037519;28;20231;-73
2023/04/01 01:51:15;;;;;;;2.53;1.20;;;;;;;10.22;83.67;98739.31;5048007;28;20841;-73
2023/04/01 01:53:42;;;;;;;4.13;1.30;;;;;;;10.17;83.49;98727.88;5044306;28;20264;-73
2023/04/01 01:56:10;;;;;;;4.03;1.40;;;;;;;10.19;84.11;98737.56;5039741;28;20203;-73
2023/04/01 01:58:42;;;;;;;2.90;1.27;;;;;;;10.20;83.60;98727.84;5045937;28;20206;-72
2023/04/01 02:01:14;;;;;;;4.23;1.20;;;;;;;10.14;83.85;98734.09;5035362;28;20771;-72
2023/04/01 02:03:42;;;;;;;4.67;1.33;;;;;;;10.15;83.91;98724.38;5017502;28;20287;-72
2023/04/01 02:06:11;;;;;;;2.43;1.30;;;;;;;10.17;83.77;98727.88;5047132;28;20204;-72
2023/04/01 02:08:45;;;;;;;3.90;1.20;;;;;;;10.14;83.91;98714.69;5043634;28;20198;-73
2023/04/01 02:11:15;;;;;;;3.70;1.60;;;;;;;10.10;84.22;98723.56;5035780;28;20218;-72
2023/04/01 02:13:48;;;;;;;4.43;1.30;;;;;;;10.08;84.08;98718.28;5028748;28;20273;-73
2023/04/01 02:16:32;;;;;;;5.83;2.03;;;;;;;10.03;84.09;98736.88;5040241;28;20198;-72
2023/04/01 02:19:00;;;;;;;3.33;1.30;;;;;;;10.00;84.46;98734.22;5046245;28;20202;-72
2023/04/01 02:21:31;;;;;;;2.30;1.10;;;;;;;10.06;84.31;98741.25;5039641;28;20208;-72
2023/04/01 02:24:00;;;;;;;4.00;1.13;;;;;;;10.08;84.24;98725.34;5028456;28;20249;-72
2023/04/01 02:26:27;;;;;;;1.93;1.13;;;;;;;10.05;85.03;98723.63;5032515;28;20200;-72
2023/04/01 02:28:55;;;;;;;3.60;1.43;;;;;;;9.99;85.36;98728.94;5027559;28;20203;-71
2023/04/01 02:31:23;;;;;;;3.20;1.30;;;;;;;9.99;85.59;98734.25;5034426;28;20195;-71
2023/04/01 02:33:50;;;;;;;5.00;1.00;;;;;;;9.92;86.08;98738.72;5035316;28;20215;-72
2023/04/01 02:36:17;;;;;;;3.93;1.47;;;;;;;9.85;86.15;98728.22;5052469;28;20575;-73
2023/04/01 02:38:44;;;;;;;3.57;1.30;;;;;;;9.86;85.95;98733.50;5030244;28;20261;-71
2023/04/01 02:41:11;;;;;;;2.10;1.10;;;;;;;9.85;86.39;98726.47;5050461;28;20346;-72
2023/04/01 02:43:38;;;;;;;4.03;1.20;;;;;;;9.85;86.52;98723.81;5052363;28;20621;-72
2023/04/01 02:46:04;;;;;;;1.73;1.50;;;;;;;9.88;86.45;98721.16;5035294;28;20723;-72
2023/04/01 02:48:31;;;;;;;2.23;1.20;;;;;;;9.85;86.80;98721.19;5038939;28;20214;-72
2023/04/01 02:50:57;;;;;;;6.20;1.40;;;;;;;9.84;87.18;98723.84;5048187;28;20228;-72
2023/04/01 02:53:24;;;;;;;2.33;1.10;;;;;;;9.80;87.46;98724.78;5032583;28;20256;-71
2023/04/01 02:55:51;;;;;;;4.50;1.13;;;;;;;9.80;87.63;98733.56;5038519;28;20212;-72
2023/04/01 02:58:18;;;;;;;3.60;1.37;;;;;;;9.78;87.62;98723.91;5041289;28;20732;-72
2023/04/01 03:00:44;;;;;;;2.73;1.30;;;;;;;9.79;87.89;98723.91;5034534;28;20275;-72
2023/04/01 03:03:13;;;;;;;3.37;1.40;;;;;;;9.77;88.23;98723.03;5038583;28;20233;-72
2023/04/01 03:05:40;;;;;;;3.20;1.30;;;;;;;9.77;88.09;98720.38;5033913;28;20695;-72
2023/04/01 03:08:06;;;;;;;3.67;1.17;;;;;;;9.78;88.38;98715.97;5031011;28;20204;-73
2023/04/01 03:10:32;;;;;;;4.10;1.37;;;;;;;9.74;88.37;98723.94;5051942;28;20267;-72
2023/04/01 03:12:59;;;;;;;4.07;1.37;;;;;;;9.78;88.65;98726.56;5029254;28;20458;-72
2023/04/01 03:15:25;;;;;;;4.00;1.30;;;;;;;9.78;88.30;98721.25;5044681;28;20653;-72
2023/04/01 03:17:51;;;;;;;3.73;1.50;;;;;;;9.71;88.86;98721.34;5044199;28;20204;-72
2023/04/01 03:20:19;;;;;;;4.30;1.33;;;;;;;9.73;88.93;98729.25;5043259;28;20275;-72
2023/04/01 03:22:46;;;;;;;1.60;1.30;;;;;;;9.74;88.68;98725.72;5041897;28;20290;-72
2023/04/01 03:25:13;;;;;;;4.97;1.57;;;;;;;9.77;88.36;98728.31;5033327;28;20605;-72
2023/04/01 03:27:39;;;;;;;4.00;1.43;;;;;;;9.72;89.15;98730.13;5045535;28;20193;-73
2023/04/01 03:30:06;;;;;;;6.70;1.50;;;;;;;9.71;89.03;98723.09;5051051;28;20249;-73
2023/04/01 03:32:33;;;;;;;7.03;1.67;;;;;;;9.71;88.89;98726.63;5029491;28;20208;-72
2023/04/01 03:34:59;;;;;;;4.27;1.50;;;;;;;9.74;88.86;98721.31;5041261;28;20212;-72
2023/04/01 03:37:26;;;;;;;3.10;1.47;;;;;;;9.74;88.59;98723.06;5040961;28;20259;-72
2023/04/01 03:39:52;;;;;;;4.23;1.60;;;;;;;9.72;88.68;98720.44;5039825;28;20305;-72
2023/04/01 03:42:19;;;;;;;1.70;1.30;;;;;;;9.69;88.99;98722.25;5042934;28;20197;-72
2023/04/01 03:44:45;;;;;;;2.13;1.33;;;;;;;9.76;89.02;98723.94;5031126;28;20197;-72
2023/04/01 03:47:12;;;;;;;3.87;1.60;;;;;;;9.72;89.35;98725.72;5033418;28;20195;-72
2023/04/01 03:49:38;;;;;;;5.60;1.60;;;;;;;9.78;88.88;98723.91;5038032;28;20218;-73
2023/04/01 03:52:09;;;;;;;2.73;1.13;;;;;;;9.77;89.78;98714.22;5045174;28;20198;-71
2023/04/01 03:54:35;;;;;;;3.37;1.63;;;;;;;9.74;89.74;98728.34;5037878;28;20291;-72
2023/04/01 03:57:02;;;;;;;3.27;1.40;;;;;;;9.74;89.38;98721.31;5040367;28;20578;-72
2023/04/01 03:59:28;;;;;;;3.60;1.40;;;;;;;9.74;89.62;98723.94;5040648;28;20597;-73
2023/04/01 04:01:55;;;;;;;3.30;1.53;;;;;;;9.74;89.44;98718.66;5042856;28;20645;-73
2023/04/01 04:04:21;;;;;;;5.03;1.60;;;;;;;9.75;89.39;98716.88;5032957;28;20200;-73
2023/04/01 04:06:48;;;;;;;4.27;1.40;;;;;;;9.74;89.24;98723.06;5031308;28;20745;-73
2023/04/01 04:09:14;;;;;;;2.37;1.30;;;;;;;9.77;89.70;98722.16;5033005;28;20272;-72
2023/04/01 04:11:41;;;;;;;3.90;1.43;;;;;;;9.72;89.37;98723.09;5043958;28;20211;-73
2023/04/01 04:14:07;;;;;;;4.43;1.33;;;;;;;9.74;89.18;98723.94;5026443;28;20230;-73
2023/04/01 04:16:37;;;;;;;2.27;1.30;;;;;;;9.76;89.14;98726.56;5036644;28;20663;-73
2023/04/01 04:19:04;;;;;;;2.83;1.03;;;;;;;9.79;89.47;98737.13;5044005;28;20203;-73
2023/04/01 04:21:30;;;;;;;3.73;1.33;;;;;;;9.76;89.52;98734.50;5041766;28;20664;-73
2023/04/01 04:23:59;;;;;;;4.40;1.30;;;;;;;9.76;89.71;98736.28;5029612;28;20201;-73
2023/04/01 04:26:26;;;;;;;7.63;1.60;;;;;;;9.76;89.61;98731.84;5039325;28;20206;-74
2023/04/01 04:28:54;;;;;;;4.73;1.33;;;;;;;9.82;88.81;98726.50;5041720;28;20200;-72
2023/04/01 04:31:22;;;;;;;2.93;1.17;;;;;;;9.80;89.24;98725.66;5026266;28;20233;-73
2023/04/01 04:33:48;;;;;;;2.93;1.20;;;;;;;9.78;89.02;98724.78;5032226;28;20706;-72
2023/04/01 04:36:15;;;;;;;4.00;1.27;;;;;;;9.77;89.05;98730.09;5049212;28;20209;-73
2023/04/01 04:38:41;;;;;;;2.77;1.47;;;;;;;9.79;89.11;98737.13;5041470;28;20208;-73
2023/04/01 04:41:15;;;;;;;2.53;1.13;;;;;;;9.74;89.42;98731.00;5026963;28;20574;-73
2023/04/01 04:43:42;;;;;;;3.77;1.73;;;;;;;9.76;89.55;98730.97;5033237;28;20202;-72
2023/04/01 04:46:09;;;;;;;3.93;1.50;;;;;;;9.75;89.31;98730.09;5050191;28;20192;-72
2023/04/01 04:48:36;;;;;;;2.87;1.40;;;;;;;9.74;89.40;98731.00;5031141;28;20195;-73
2023/04/01 04:51:03;;;;;;;3.23;1.80;;;;;;;9.73;89.79;98737.19;5045652;28;20688;-72
2023/04/01 04:53:29;;;;;;;2.77;1.50;;;;;;;9.71;89.88;98733.69;5042945;28;20556;-72
2023/04/01 04:55:55;;;;;;;5.43;1.70;;;;;;;9.74;89.93;98731.00;5029292;28;20619;-73
2023/04/01 04:58:22;;;;;;;4.30;1.73;;;;;;;9.70;90.00;98729.28;5038657;28;20670;-72
2023/04/01 05:00:48;;;;;;;6.17;1.30;;;;;;;9.66;90.10;98728.44;5042250;28;20232;-73
2023/04/01 05:03:15;;;;;;;3.73;1.27;;;;;;;9.73;89.83;98731.88;5050051;28;20202;-72
2023/04/01 05:05:52;;;;;;;2.53;1.30;;;;;;;9.73;89.78;98731.88;5027473;28;20676;-73
2023/04/01 05:08:18;;;;;;;2.93;1.33;;;;;;;9.71;89.60;98734.56;5033181;28;20372;-72
2023/04/01 05:10:45;;;;;;;5.83;1.20;;;;;;;9.69;89.67;98727.53;5041617;28;20219;-73
2023/04/01 05:13:12;;;;;;;3.50;1.20;;;;;;;9.71;89.61;98729.25;5043635;28;20200;-73
2023/04/01 05:15:39;;;;;;;5.20;2.30;;;;;;;9.71;89.05;98731.91;5030104;28;20244;-73
2023/04/01 05:18:05;;;;;;;6.07;1.30;;;;;;;9.76;88.29;98736.28;5039832;28;20210;-72
2023/04/01 05:20:32;;;;;;;4.67;1.43;;;;;;;9.71;88.81;98728.38;5017461;28;20648;-73
2023/04/01 05:22:59;;;;;;;2.60;1.20;;;;;;;9.74;88.94;98728.34;5033734;28;20197;-72
2023/04/01 05:25:26;;;;;;;2.83;1.17;;;;;;;9.76;89.14;98729.22;5044309;28;20196;-73
2023/04/01 05:27:52;;;;;;;3.43;1.00;;;;;;;9.73;88.69;98723.97;5028096;28;20243;-73
2023/04/01 05:30:19;;;;;;;3.33;1.10;;;;;;;9.75;88.80;98732.75;5046641;28;20230;-73
2023/04/01 05:32:45;;;;;;;4.27;1.30;;;;;;;9.74;88.86;98731.00;5027048;28;20232;-74
2023/04/01 05:35:12;;;;;;;3.20;0.83;;;;;;;9.81;88.39;98715.94;5037359;28;20251;-72
2023/04/01 05:37:38;;;;;;;2.33;1.10;;;;;;;9.80;87.49;98723.00;5049686;28;20227;-72
2023/04/01 05:40:05;;;;;;;3.03;1.10;;;;;;;9.79;88.22;98723.91;5025466;28;20614;-72
2023/04/01 05:42:32;;;;;;;2.73;1.00;;;;;;;9.82;87.90;98728.28;5025315;28;20197;-72
2023/04/01 05:45:01;;;;;;;3.03;1.13;;;;;;;9.81;87.82;98724.75;5049484;28;20202;-72
2023/04/01 05:47:27;;;;;;;2.03;0.93;;;;;;;9.81;88.36;98724.75;5048532;28;20234;-73
2023/04/01 05:49:55;;;;;;;3.03;1.30;;;;;;;9.81;87.12;98724.75;5031742;28;20222;-72
2023/04/01 05:52:21;;;;;;;5.87;1.30;;;;;;;9.83;87.27;98728.25;5022615;28;20228;-72
2023/04/01 05:54:47;;;;;;;3.17;0.93;;;;;;;9.81;87.55;98722.09;5047246;28;20227;-72
2023/04/01 05:57:14;;;;;;;2.73;1.20;;;;;;;9.90;86.62;98735.22;5033882;28;20217;-73
2023/04/01 05:59:40;;;;;;;3.83;1.17;;;;;;;9.91;86.66;98728.16;5035030;28;20278;-72
2023/04/01 06:02:08;;;;;;;3.57;1.10;;;;;;;9.91;86.51;98723.75;5037428;28;20296;-72
2023/04/01 06:04:38;;;;;;;3.73;1.03;;;;;;;9.95;86.66;98725.47;5052661;28;20477;-72
2023/04/01 06:07:12;;;;;;;4.47;1.40;;;;;;;9.96;87.08;98721.94;5043195;28;20209;-72
2023/04/01 06:09:38;;;;;;;2.10;1.00;;;;;;;9.97;86.64;98722.81;5026987;28;20703;-72
2023/04/01 06:12:20;;;;;;;2.40;0.90;;;;;;;10.02;86.06;98710.44;5036552;28;20208;-72
2023/04/01 06:15:03;;;;;;;3.80;0.90;;;;;;;10.01;86.25;98714.84;5011700;28;20225;-73
2023/04/01 06:17:50;;;;;;;1.83;0.90;;;;;;;10.03;86.23;98714.84;5036368;28;20317;-72
2023/04/01 06:20:53;;;;;;;3.30;1.20;;;;;;;10.04;86.09;98722.75;5046838;28;20222;-72
2023/04/01 06:23:29;;;;;;;2.37;0.90;;;;;;;10.06;86.19;98720.09;5034791;28;20207;-72
2023/04/01 06:26:21;;;;;;;2.97;1.00;;;;;;;10.08;85.73;98720.06;5044528;28;20208;-72
2023/04/01 06:29:25;;;;;;;3.47;1.20;;;;;;;10.03;86.68;98728.94;5039098;28;20264;-72
2023/04/01 06:32:20;;;;;;;6.00;1.10;;;;;;;10.01;86.57;98725.44;5040547;28;20231;-72
2023/04/01 06:34:50;;;;;;;2.00;0.87;;;;;;;10.01;87.53;98724.56;5038519;28;20233;-72
2023/04/01 06:37:29;;;;;;;1.67;0.90;;;;;;;10.00;87.67;98725.41;5040620;28;20236;-72
2023/04/01 06:40:33;;;;;;;1.63;0.80;;;;;;;9.98;88.05;98722.78;5031121;28;20223;-72
2023/04/01 06:43:26;;;;;;;2.60;1.00;;;;;;;9.98;88.38;98724.56;5025277;28;20200;-72
2023/04/01 06:46:05;;;;;;;2.87;1.00;;;;;;;10.00;88.86;98722.78;5035796;28;20659;-72
2023/04/01 06:49:14;;;;;;;3.10;0.90;;;;;;;9.99;89.13;98724.53;5030277;28;20203;-73
2023/04/01 06:52:07;;;;;;;3.20;1.10;;;;;;;9.99;89.95;98724.53;5014724;28;20697;-72
2023/04/01 06:54:38;;;;;;;1.63;0.90;;;;;;;10.06;90.94;98714.78;5037603;28;20251;-72
2023/04/01 06:57:28;;;;;;;2.53;0.90;;;;;;;10.14;90.23;98718.22;5051913;28;20216;-73
2023/04/01 06:59:59;;;;;;;1.80;0.73;;;;;;;10.25;90.21;98726.06;5033805;28;20264;-72
2023/04/01 07:02:35;;;;;;;1.70;0.87;;;;;;;10.21;91.05;98734.94;5047559;28;20241;-72
2023/04/01 07:05:03;;;;;;;2.83;0.90;;;;;;;10.24;91.55;98725.19;5046632;28;20201;-73
2023/04/01 07:08:02;;;;;;;2.87;1.00;;;;;;;10.30;91.60;98727.75;5048905;28;20722;-73
2023/04/01 07:10:42;;;;;;;3.07;1.03;;;;;;;10.39;91.85;98726.75;5024285;28;20246;-73
2023/04/01 07:13:22;;;;;;;1.93;0.60;;;;;;;10.35;91.96;98717.97;5068557;28;20197;-73
2023/04/01 07:15:58;;;;;;;1.53;0.70;;;;;;;10.33;92.84;98727.69;5041618;28;20256;-73
2023/04/01 07:18:34;;;;;;;0.90;0.60;;;;;;;10.26;91.66;98726.03;5041896;28;20202;-73
2023/04/01 07:21:04;;;;;;;1.53;0.60;;;;;;;10.34;92.77;98720.63;5030335;28;20256;-73
2023/04/01 07:23:42;;;;;;;2.00;0.70;;;;;;;10.40;92.18;98720.56;5050038;28;20205;-73
2023/04/01 07:26:23;;;;;;;1.20;0.67;;;;;;;10.44;91.60;98732.00;5035217;28;20211;-73
2023/04/01 07:28:53;;;;;;;1.43;0.70;;;;;;;10.50;92.59;98722.22;5047431;28;20231;-73
2023/04/01 07:31:32;;;;;;;1.43;0.63;;;;;;;10.71;91.65;98718.38;5041657;28;20260;-72
2023/04/01 07:34:10;;;;;;;1.43;0.70;;;;;;;10.79;89.60;98724.44;5037949;28;20215;-72
2023/04/01 07:36:47;;;;;;;0.60;0.60;;;;;;;10.92;88.56;98727.81;5017738;28;20196;-72
2023/04/01 07:39:31;;;;;;;1.60;0.60;;;;;;;11.18;88.01;98733.56;5037805;28;20225;-73
2023/04/01 07:42:23;;;;;;;1.40;0.57;;;;;;;11.43;86.42;98733.19;5044625;28;20210;-73
2023/04/01 07:45:02;;;;;;;0.50;0.40;;;;;;;11.60;86.45;98737.28;5040027;28;20195;-72
2023/04/01 07:47:35;;;;;;;0.50;0.50;;;;;;;11.68;84.44;98742.47;5042950;28;20223;-73
2023/04/01 07:50:13;;;;;;;0.60;0.53;;;;;;;11.81;84.33;98745.81;5050466;28;20226;-73
2023/04/01 07:53:02;;;;;;;0.80;0.50;;;;;;;11.77;82.83;98742.31;5050226;28;20226;-72
2023/04/01 07:55:37;;;;;;;1.17;0.60;;;;;;;11.60;84.63;98741.72;5035779;28;20214;-73
2023/04/01 07:58:25;;;;;;;0.93;0.40;;;;;;;11.37;85.16;98749.19;5049905;28;20206;-72
2023/04/01 08:01:13;;;;;;;0.40;0.40;;;;;;;11.37;87.52;98755.38;5042745;28;20714;-71
2023/04/01 08:04:09;;;;;;;0.43;0.40;;;;;;;11.27;87.50;98757.28;5010358;28;20210;-74
2023/04/01 08:06:45;;;;;;;0.90;0.50;;;;;;;11.20;88.09;98757.38;5036208;28;20669;-72
2023/04/01 08:09:32;;;;;;;1.33;0.50;;;;;;;11.07;89.00;98756.72;5038757;28;20225;-73
2023/04/01 08:12:11;;;;;;;0.50;0.43;;;;;;;11.17;89.22;98758.31;5030208;28;20202;-72
2023/04/01 08:14:49;;;;;;;1.40;0.60;;;;;;;11.14;90.14;98763.66;5023247;28;20250;-72
2023/04/01 08:17:32;;;;;;;1.27;0.70;;;;;;;11.08;90.71;98765.53;5044470;28;20204;-73
2023/04/01 08:20:18;;;;;;;1.87;0.57;;;;;;;11.19;91.23;98768.88;5036692;28;20222;-73
2023/04/01 08:22:57;;;;;;;1.13;0.60;;;;;;;11.23;91.31;98774.16;5028947;28;20230;-73
2023/04/01 08:25:26;;;;;;;2.13;0.70;;;;;;;11.32;91.51;98770.47;5029545;28;20193;-73
2023/04/01 08:28:17;;;;;;;0.47;0.40;;;;;;;11.41;90.58;98772.97;5036601;28;20570;-73
2023/04/01 08:30:50;;;;;;;3.37;0.67;;;;;;;11.40;90.04;98784.47;5039985;28;20227;-73
2023/04/01 08:33:29;;;;;;;1.07;0.50;;;;;;;11.15;91.89;98773.34;5035175;28;20249;-72
2023/04/01 08:36:02;;;;;;;0.77;0.40;;;;;;;11.12;92.32;98772.53;5049687;28;20312;-72
2023/04/01 08:38:32;;;;;;;1.00;0.60;;;;;;;11.27;92.92;98781.16;5041669;28;20206;-73
2023/04/01 08:41:30;;;;;;;3.90;0.90;;;;;;;11.25;92.37;98775.00;5032516;28;20225;-74
2023/04/01 08:44:20;;;;;;;1.77;0.87;;;;;;;11.34;92.34;98781.94;5028039;28;20191;-73
2023/04/01 08:47:07;;;;;;;1.37;0.67;;;;;;;11.54;93.46;98785.13;5029783;28;20288;-73
2023/04/01 08:49:57;;;;;;;0.83;0.63;;;;;;;11.45;91.49;98784.41;5036206;28;20216;-73
2023/04/01 08:52:35;;;;;;;1.50;0.60;;;;;;;11.65;91.87;98787.63;5035336;28;20819;-73
2023/04/01 08:55:40;;;;;;;0.83;0.50;;;;;;;11.63;90.88;98788.53;5032042;28;20221;-73
2023/04/01 08:58:32;;;;;;;0.80;0.60;;;;;;;11.59;92.38;98785.03;5043941;28;20207;-72
2023/04/01 09:01:13;;;;;;;2.33;0.50;;;;;;;11.55;93.12;98786.88;5045306;28;20223;-72
2023/04/01 09:04:06;;;;;;;0.93;0.50;;;;;;;11.60;93.21;98792.09;5040024;28;20585;-72
2023/04/01 09:06:49;;;;;;;1.00;0.70;;;;;;;11.75;92.84;98794.50;5029916;28;20226;-72
2023/04/01 09:09:43;;;;;;;1.20;0.63;;;;;;;11.85;92.33;98796.13;5042345;28;20324;-73
2023/04/01 09:12:28;;;;;;;1.43;0.80;;;;;;;11.82;92.98;98795.31;5046025;28;20199;-72
2023/04/01 09:15:16;;;;;;;1.50;0.70;;;;;;;11.74;93.45;98790.09;5049902;28;20662;-73
2023/04/01 09:18:11;;;;;;;1.20;0.60;;;;;;;11.69;93.51;98793.75;5021242;28;20207;-72
2023/04/01 09:20:55;;;;;;;1.60;0.70;;;;;;;11.64;94.70;98798.25;5039494;28;20244;-72
2023/04/01 09:23:40;;;;;;;1.70;0.70;;;;;;;11.85;94.46;98805.84;5025287;28;20199;-72
2023/04/01 09:26:30;;;;;;;2.67;0.63;;;;;;;11.90;93.64;98793.38;5046282;28;20554;-73
2023/04/01 09:29:31;;;;;;;0.50;0.50;;;;;;;11.95;93.39;98794.19;5026845;28;20227;-73
2023/04/01 09:32:26;;;;;;;1.63;0.90;;;;;;;12.13;93.50;98799.16;5034433;28;20199;-72
2023/04/01 09:35:21;;;;;;;2.87;1.00;;;;;;;12.32;93.10;98801.47;5036983;28;20194;-73
2023/04/01 09:38:18;;;;;;;2.73;1.00;;;;;;;12.40;92.80;98807.50;5015396;28;20231;-72
2023/04/01 09:41:04;;;;;;;1.23;0.73;;;;;;;12.33;92.66;98812.06;5033225;28;20316;-71
2023/04/01 09:44:01;;;;;;;1.67;0.80;;;;;;;12.35;94.19;98810.25;5044042;28;20202;-72
2023/04/01 09:46:35;;;;;;;1.13;0.60;;;;;;;12.50;92.51;98819.72;5053027;28;20193;-72
2023/04/01 09:49:30;;;;;;;0.77;0.50;;;;;;;12.75;91.06;98815.63;5043358;28;20205;-72
2023/04/01 09:52:17;;;;;;;0.90;0.70;;;;;;;13.04;91.39;98820.34;5051557;28;20332;-71
2023/04/01 09:55:03;;;;;;;1.20;0.60;;;;;;;13.21;89.44;98822.69;5053304;28;20201;-72
2023/04/01 09:58:05;;;;;;;2.10;0.57;;;;;;;13.21;90.12;98829.75;5050396;28;20237;-72
2023/04/01 10:01:07;;;;;;;0.50;0.50;;;;;;;13.05;90.48;98822.09;5062135;23;20253;-81
2023/04/01 10:04:00;;;;;;;2.67;0.80;;;;;;;12.74;90.62;98821.84;5050563;28;21818;-79
2023/04/01 10:07:27;;;;;;;2.53;0.90;;;;;;;12.77;90.62;98836.84;5032629;28;20253;-80
2023/04/01 10:09:59;;;;;;;1.50;0.60;;;;;;;12.74;91.12;98834.25;5013108;28;20635;-79
2023/04/01 10:12:46;;;;;;;0.60;0.60;;;;;;;12.76;91.34;98832.44;5019207;28;20206;-79
2023/04/01 10:15:16;;;;;;;0.90;0.70;;;;;;;12.92;91.57;98836.56;5027912;28;20221;-81
2023/04/01 10:18:04;;;;;;;0.60;0.50;;;;;;;13.01;90.83;98833.69;5034377;28;20257;-79
2023/04/01 10:20:56;;;;;;;0.60;0.40;;;;;;;13.04;91.05;98840.72;4995716;28;20243;-80
2023/04/01 10:23:53;;;;;;;1.60;0.90;;;;;;;12.91;91.65;98841.91;5022448;28;20250;-79
2023/04/01 10:26:44;;;;;;;0.57;0.50;;;;;;;12.84;91.55;98838.50;5043606;28;20249;-79
2023/04/01 10:29:26;;;;;;;1.07;0.80;;;;;;;12.92;91.42;98836.56;5035589;28;20637;-82
2023/04/01 10:32:25;;;;;;;1.33;0.80;;;;;;;13.05;91.23;98838.03;5033766;28;20245;-81
2023/04/01 10:35:28;;;;;;;1.93;1.07;;;;;;;13.38;91.53;98832.91;5047406;28;20206;-79
2023/04/01 10:38:14;;;;;;;2.00;1.20;;;;;;;13.77;88.93;98833.75;4994366;28;20700;-76
2023/04/01 10:41:18;;;;;;;1.90;1.17;;;;;;;13.94;88.20;98842.19;5026866;28;20257;-74
2023/04/01 10:44:06;;;;;;;2.30;1.40;;;;;;;13.75;88.59;98838.25;5028117;28;20195;-75
2023/04/01 10:46:51;;;;;;;1.10;0.77;;;;;;;13.84;88.27;98834.47;5043014;28;20319;-77
2023/04/01 10:49:20;;;;;;;2.40;0.70;;;;;;;14.00;87.75;98833.16;5032309;28;20199;-77
2023/04/01 10:52:08;;;;;;;0.70;0.60;;;;;;;14.24;87.56;98826.34;5021310;28;20230;-74
2023/04/01 10:54:56;;;;;;;1.00;0.60;;;;;;;14.67;85.62;98826.97;5028630;28;20204;-74
2023/04/01 10:57:55;;;;;;;1.07;0.70;;;;;;;15.12;84.71;98820.31;5033295;28;20301;-73
2023/04/01 11:00:40;;;;;;;3.37;1.10;;;;;;;15.43;81.74;98825.59;5042158;28;20258;-71
2023/04/01 11:03:44;;;;;;;1.40;0.60;;;;;;;15.44;81.40;98820.22;5016353;28;20206;-71
2023/04/01 11:06:19;;;;;;;2.33;0.90;;;;;;;15.36;81.14;98819.59;5046491;28;20252;-72
2023/04/01 11:09:16;;;;;;;1.37;0.73;;;;;;;15.46;79.70;98825.50;5052293;28;20198;-74
2023/04/01 11:12:00;;;;;;;0.70;0.63;;;;;;;15.39;79.38;98822.16;5038410;28;20199;-73
2023/04/01 11:14:37;;;;;;;1.53;1.00;;;;;;;15.04;80.80;98824.09;5034203;28;20678;-73
2023/04/01 11:17:42;;;;;;;2.27;1.37;;;;;;;14.89;82.95;98832.56;5019826;28;20225;-71
2023/04/01 11:20:33;;;;;;;1.93;1.00;;;;;;;14.64;83.06;98821.72;5030577;28;20230;-71
2023/04/01 11:23:24;;;;;;;1.40;0.80;;;;;;;14.69;83.66;98819.78;5027784;28;20278;-71
2023/04/01 11:26:05;;;;;;;0.60;0.60;;;;;;;14.56;81.68;98831.72;5027088;28;20655;-73
2023/04/01 11:28:44;;;;;;;1.63;0.80;;;;;;;14.26;82.88;98843.16;5035481;28;20202;-72
2023/04/01 11:31:16;;;;;;;0.73;0.60;;;;;;;14.14;83.57;98844.38;5024148;28;20216;-73
2023/04/01 11:34:04;;;;;;;1.00;0.60;;;;;;;14.16;84.32;98839.00;5034314;28;20200;-73
2023/04/01 11:37:10;;;;;;;2.60;0.90;;;;;;;14.20;84.12;98846.00;5013745;28;20219;-74
2023/04/01 11:39:55;;;;;;;1.10;0.50;;;;;;;14.34;84.13;98844.69;5032029;28;20218;-73
2023/04/01 11:42:45;;;;;;;0.83;0.70;;;;;;;14.53;83.75;98849.59;5034350;28;20560;-73
2023/04/01 11:45:36;;;;;;;0.87;0.50;;;;;;;14.84;84.04;98844.28;5030323;28;20195;-73
2023/04/01 11:48:37;;;;;;;0.60;0.60;;;;;;;14.92;84.89;98844.94;5026797;28;20691;-74
2023/04/01 11:51:29;;;;;;;1.00;0.80;;;;;;;14.88;82.39;98848.59;5040751;28;20227;-73
2023/04/01 11:54:05;;;;;;;0.87;0.70;;;;;;;14.93;83.62;98860.88;5029859;28;20196;-73
2023/04/01 11:56:52;;;;;;;1.33;0.70;;;;;;;14.81;83.49;98863.00;5022698;28;20230;-74
2023/04/01 12:00:00;;;;;;;2.00;1.00;;;;;;;14.63;84.15;98873.25;5030872;28;20215;-72
2023/04/01 12:03:02;;;;;;;1.63;0.73;;;;;;;14.20;87.05;98881.47;5034735;28;20199;-71
2023/04/01 12:05:41;;;;;;;0.67;0.50;;;;;;;13.82;86.55;98886.88;5011858;28;20218;-74
2023/04/01 12:08:30;;;;;;;2.43;0.90;;;;;;;13.62;89.54;98895.31;5036314;28;20243;-73
2023/04/01 12:11:08;;;;;;;2.53;1.40;;;;;;;13.38;90.16;98886.97;5035145;28;20318;-74
2023/04/01 12:13:53;;;;;;;1.43;0.67;;;;;;;13.22;89.59;98885.56;5011618;28;20250;-74
2023/04/01 12:16:44;;;;;;;0.83;0.50;;;;;;;13.39;90.45;98887.84;5011011;28;20245;-75
2023/04/01 12:19:38;;;;;;;0.40;0.40;;;;;;;13.70;90.31;98886.25;5027311;28;20287;-77
2023/04/01 12:22:34;;;;;;;1.73;0.50;;;;;;;13.62;90.33;98898.00;5029509;28;20210;-78
2023/04/01 12:25:07;;;;;;;0.60;0.50;;;;;;;13.99;89.28;98898.84;5025554;28;20291;-78